sensor_id;sensor_type;location;lat;lon;timestamp;P1;durP1;ratioP1;P2;durP2;ratioP2
30818;SDS011;17546;42.674;23.284;2023-04-08T00:00:48;53.17;;;27.48;;
30818;SDS011;17546;42.674;23.284;2023-04-08T00:03:13;49.08;;;28.00;;
30818;SDS011;17546;42.674;23.284;2023-04-08T00:05:39;57.95;;;28.30;;
30818;SDS011;17546;42.674;23.284;2023-04-08T00:08:07;52.35;;;27.88;;
30818;SDS011;17546;42.674;23.284;2023-04-08T00:10:33;46.58;;;26.83;;
30818;SDS011;17546;42.674;23.284;2023-04-08T00:12:58;49.22;;;26.13;;
30818;SDS011;17546;42.674;23.284;2023-04-08T00:15:25;52.45;;;25.73;;
30818;SDS011;17546;42.674;23.284;2023-04-08T00:17:50;47.83;;;25.10;;
30818;SDS011;17546;42.674;23.284;2023-04-08T00:20:18;46.75;;;25.63;;
30818;SDS011;17546;42.674;23.284;2023-04-08T00:22:44;41.83;;;23.42;;
30818;SDS011;17546;42.674;23.284;2023-04-08T00:25:09;45.85;;;23.75;;
30818;SDS011;17546;42.674;23.284;2023-04-08T00:27:35;44.30;;;24.17;;
30818;SDS011;17546;42.674;23.284;2023-04-08T00:30:00;43.92;;;23.40;;
30818;SDS011;17546;42.674;23.284;2023-04-08T00:32:27;46.90;;;23.58;;
30818;SDS011;17546;42.674;23.284;2023-04-08T00:34:53;40.83;;;23.27;;
30818;SDS011;17546;42.674;23.284;2023-04-08T00:37:19;41.83;;;24.10;;
30818;SDS011;17546;42.674;23.284;2023-04-08T00:39:45;46.03;;;24.10;;
30818;SDS011;17546;42.674;23.284;2023-04-08T00:42:11;49.28;;;23.60;;
30818;SDS011;17546;42.674;23.284;2023-04-08T00:44:36;41.95;;;22.77;;
30818;SDS011;17546;42.674;23.284;2023-04-08T00:47:02;41.35;;;22.45;;
30818;SDS011;17546;42.674;23.284;2023-04-08T00:49:29;40.90;;;22.80;;
30818;SDS011;17546;42.674;23.284;2023-04-08T00:51:55;39.00;;;22.55;;
30818;SDS011;17546;42.674;23.284;2023-04-08T00:54:21;42.40;;;23.00;;
30818;SDS011;17546;42.674;23.284;2023-04-08T00:56:46;39.45;;;22.00;;
30818;SDS011;17546;42.674;23.284;2023-04-08T00:59:12;39.28;;;22.60;;
30818;SDS011;17546;42.674;23.284;2023-04-08T01:01:42;40.42;;;24.23;;
30818;SDS011;17546;42.674;23.284;2023-04-08T01:04:21;46.88;;;26.13;;
30818;SDS011;17546;42.674;23.284;2023-04-08T01:07:05;43.72;;;24.98;;
30818;SDS011;17546;42.674;23.284;2023-04-08T01:09:38;47.28;;;24.92;;
30818;SDS011;17546;42.674;23.284;2023-04-08T01:12:09;45.55;;;24.80;;
30818;SDS011;17546;42.674;23.284;2023-04-08T01:14:41;51.20;;;25.73;;
30818;SDS011;17546;42.674;23.284;2023-04-08T01:17:09;45.97;;;25.88;;
30818;SDS011;17546;42.674;23.284;2023-04-08T01:19:37;54.75;;;25.58;;
30818;SDS011;17546;42.674;23.284;2023-04-08T01:24:43;45.97;;;24.98;;
30818;SDS011;17546;42.674;23.284;2023-04-08T01:27:13;48.40;;;25.55;;
30818;SDS011;17546;42.674;23.284;2023-04-08T01:29:40;49.40;;;26.17;;
30818;SDS011;17546;42.674;23.284;2023-04-08T01:32:07;46.50;;;24.70;;
30818;SDS011;17546;42.674;23.284;2023-04-08T01:34:34;44.53;;;25.20;;
30818;SDS011;17546;42.674;23.284;2023-04-08T01:37:05;48.97;;;25.27;;
30818;SDS011;17546;42.674;23.284;2023-04-08T01:39:32;47.97;;;26.40;;
30818;SDS011;17546;42.674;23.284;2023-04-08T01:41:59;53.17;;;26.15;;
30818;SDS011;17546;42.674;23.284;2023-04-08T01:44:26;57.72;;;26.50;;
30818;SDS011;17546;42.674;23.284;2023-04-08T01:46:53;46.25;;;26.23;;
30818;SDS011;17546;42.674;23.284;2023-04-08T01:49:20;57.42;;;27.35;;
30818;SDS011;17546;42.674;23.284;2023-04-08T01:51:48;52.13;;;27.60;;
30818;SDS011;17546;42.674;23.284;2023-04-08T01:54:15;50.55;;;27.75;;
30818;SDS011;17546;42.674;23.284;2023-04-08T01:56:41;57.20;;;29.70;;
30818;SDS011;17546;42.674;23.284;2023-04-08T01:59:11;61.75;;;32.13;;
30818;SDS011;17546;42.674;23.284;2023-04-08T02:01:40;61.25;;;32.85;;
30818;SDS011;17546;42.674;23.284;2023-04-08T02:04:08;58.15;;;30.80;;
30818;SDS011;17546;42.674;23.284;2023-04-08T02:06:34;58.05;;;31.27;;
30818;SDS011;17546;42.674;23.284;2023-04-08T02:09:00;55.00;;;30.52;;
30818;SDS011;17546;42.674;23.284;2023-04-08T02:11:25;62.17;;;31.42;;
30818;SDS011;17546;42.674;23.284;2023-04-08T02:13:52;67.38;;;31.05;;
30818;SDS011;17546;42.674;23.284;2023-04-08T02:16:28;60.20;;;32.83;;
30818;SDS011;17546;42.674;23.284;2023-04-08T02:19:26;65.20;;;32.80;;
30818;SDS011;17546;42.674;23.284;2023-04-08T02:22:08;60.00;;;31.88;;
30818;SDS011;17546;42.674;23.284;2023-04-08T02:25:00;61.33;;;32.78;;
30818;SDS011;17546;42.674;23.284;2023-04-08T02:27:28;65.43;;;32.83;;
30818;SDS011;17546;42.674;23.284;2023-04-08T02:29:58;64.40;;;32.95;;
30818;SDS011;17546;42.674;23.284;2023-04-08T02:32:26;62.30;;;32.28;;
30818;SDS011;17546;42.674;23.284;2023-04-08T02:34:52;62.40;;;32.65;;
30818;SDS011;17546;42.674;23.284;2023-04-08T02:37:20;70.72;;;33.45;;
30818;SDS011;17546;42.674;23.284;2023-04-08T02:39:46;61.63;;;32.40;;
30818;SDS011;17546;42.674;23.284;2023-04-08T02:42:14;62.20;;;31.42;;
30818;SDS011;17546;42.674;23.284;2023-04-08T02:44:39;60.88;;;31.27;;
30818;SDS011;17546;42.674;23.284;2023-04-08T02:47:05;66.65;;;31.90;;
30818;SDS011;17546;42.674;23.284;2023-04-08T02:49:30;58.45;;;31.30;;
30818;SDS011;17546;42.674;23.284;2023-04-08T02:51:56;55.83;;;30.10;;
30818;SDS011;17546;42.674;23.284;2023-04-08T02:54:21;63.28;;;32.33;;
30818;SDS011;17546;42.674;23.284;2023-04-08T02:56:47;63.28;;;32.40;;
30818;SDS011;17546;42.674;23.284;2023-04-08T02:59:12;61.47;;;33.13;;
30818;SDS011;17546;42.674;23.284;2023-04-08T03:01:37;65.78;;;32.25;;
30818;SDS011;17546;42.674;23.284;2023-04-08T03:04:03;60.13;;;31.27;;
30818;SDS011;17546;42.674;23.284;2023-04-08T03:06:28;63.92;;;30.40;;
30818;SDS011;17546;42.674;23.284;2023-04-08T03:08:55;59.92;;;29.70;;
30818;SDS011;17546;42.674;23.284;2023-04-08T03:11:20;64.75;;;30.70;;
30818;SDS011;17546;42.674;23.284;2023-04-08T03:13:46;56.85;;;29.42;;
30818;SDS011;17546;42.674;23.284;2023-04-08T03:16:14;52.92;;;29.58;;
30818;SDS011;17546;42.674;23.284;2023-04-08T03:18:40;50.35;;;27.92;;
30818;SDS011;17546;42.674;23.284;2023-04-08T03:21:05;58.55;;;28.58;;
30818;SDS011;17546;42.674;23.284;2023-04-08T03:23:31;46.65;;;27.23;;
30818;SDS011;17546;42.674;23.284;2023-04-08T03:25:56;52.78;;;28.48;;
30818;SDS011;17546;42.674;23.284;2023-04-08T03:28:22;56.13;;;28.02;;
30818;SDS011;17546;42.674;23.284;2023-04-08T03:30:47;50.88;;;27.02;;
30818;SDS011;17546;42.674;23.284;2023-04-08T03:33:13;49.95;;;28.02;;
30818;SDS011;17546;42.674;23.284;2023-04-08T03:35:40;51.83;;;27.83;;
30818;SDS011;17546;42.674;23.284;2023-04-08T03:38:05;56.00;;;28.52;;
30818;SDS011;17546;42.674;23.284;2023-04-08T03:40:31;52.70;;;27.77;;
30818;SDS011;17546;42.674;23.284;2023-04-08T03:42:56;50.28;;;28.00;;
30818;SDS011;17546;42.674;23.284;2023-04-08T03:45:22;55.30;;;28.73;;
30818;SDS011;17546;42.674;23.284;2023-04-08T03:47:47;55.35;;;27.42;;
30818;SDS011;17546;42.674;23.284;2023-04-08T03:50:13;54.30;;;28.25;;
30818;SDS011;17546;42.674;23.284;2023-04-08T03:52:38;49.33;;;27.17;;
30818;SDS011;17546;42.674;23.284;2023-04-08T03:55:04;51.75;;;28.17;;
30818;SDS011;17546;42.674;23.284;2023-04-08T03:57:29;52.33;;;27.60;;
30818;SDS011;17546;42.674;23.284;2023-04-08T03:59:55;52.88;;;29.77;;
30818;SDS011;17546;42.674;23.284;2023-04-08T04:02:20;52.10;;;28.48;;
30818;SDS011;17546;42.674;23.284;2023-04-08T04:04:46;55.25;;;28.35;;
30818;SDS011;17546;42.674;23.284;2023-04-08T04:07:11;55.83;;;27.75;;
30818;SDS011;17546;42.674;23.284;2023-04-08T04:09:37;55.33;;;28.35;;
30818;SDS011;17546;42.674;23.284;2023-04-08T04:12:02;54.58;;;28.15;;
30818;SDS011;17546;42.674;23.284;2023-04-08T04:14:27;50.17;;;28.70;;
30818;SDS011;17546;42.674;23.284;2023-04-08T04:16:53;53.05;;;27.90;;
30818;SDS011;17546;42.674;23.284;2023-04-08T04:19:18;53.25;;;28.70;;
30818;SDS011;17546;42.674;23.284;2023-04-08T04:21:44;55.08;;;28.75;;
30818;SDS011;17546;42.674;23.284;2023-04-08T04:24:10;55.92;;;28.20;;
30818;SDS011;17546;42.674;23.284;2023-04-08T04:26:35;55.50;;;29.35;;
30818;SDS011;17546;42.674;23.284;2023-04-08T04:29:00;54.70;;;28.00;;
30818;SDS011;17546;42.674;23.284;2023-04-08T04:31:26;55.97;;;28.65;;
30818;SDS011;17546;42.674;23.284;2023-04-08T04:33:51;55.75;;;27.80;;
30818;SDS011;17546;42.674;23.284;2023-04-08T04:36:18;59.55;;;29.45;;
30818;SDS011;17546;42.674;23.284;2023-04-08T04:38:46;55.63;;;28.65;;
30818;SDS011;17546;42.674;23.284;2023-04-08T04:41:13;53.80;;;28.42;;
30818;SDS011;17546;42.674;23.284;2023-04-08T04:43:38;55.10;;;29.42;;
30818;SDS011;17546;42.674;23.284;2023-04-08T04:46:03;59.15;;;29.67;;
30818;SDS011;17546;42.674;23.284;2023-04-08T04:48:32;71.68;;;35.63;;
30818;SDS011;17546;42.674;23.284;2023-04-08T04:50:59;69.45;;;36.75;;
30818;SDS011;17546;42.674;23.284;2023-04-08T04:53:27;58.53;;;34.05;;
30818;SDS011;17546;42.674;23.284;2023-04-08T04:55:52;58.78;;;30.75;;
30818;SDS011;17546;42.674;23.284;2023-04-08T04:58:17;55.63;;;31.65;;
30818;SDS011;17546;42.674;23.284;2023-04-08T05:00:43;59.25;;;30.10;;
30818;SDS011;17546;42.674;23.284;2023-04-08T05:03:09;53.15;;;29.25;;
30818;SDS011;17546;42.674;23.284;2023-04-08T05:05:34;59.58;;;29.98;;
30818;SDS011;17546;42.674;23.284;2023-04-08T05:07:59;54.35;;;27.73;;
30818;SDS011;17546;42.674;23.284;2023-04-08T05:10:25;54.65;;;27.35;;
30818;SDS011;17546;42.674;23.284;2023-04-08T05:12:50;50.30;;;27.10;;
30818;SDS011;17546;42.674;23.284;2023-04-08T05:15:16;51.72;;;26.45;;
30818;SDS011;17546;42.674;23.284;2023-04-08T05:17:41;55.92;;;27.20;;
30818;SDS011;17546;42.674;23.284;2023-04-08T05:20:07;52.50;;;28.15;;
30818;SDS011;17546;42.674;23.284;2023-04-08T05:22:32;51.13;;;28.63;;
30818;SDS011;17546;42.674;23.284;2023-04-08T05:24:58;55.00;;;29.48;;
30818;SDS011;17546;42.674;23.284;2023-04-08T05:27:24;55.85;;;30.75;;
30818;SDS011;17546;42.674;23.284;2023-04-08T05:29:49;60.47;;;29.92;;
30818;SDS011;17546;42.674;23.284;2023-04-08T05:32:15;63.55;;;31.10;;
30818;SDS011;17546;42.674;23.284;2023-04-08T05:34:41;53.92;;;30.33;;
30818;SDS011;17546;42.674;23.284;2023-04-08T05:37:06;53.55;;;29.48;;
30818;SDS011;17546;42.674;23.284;2023-04-08T05:39:32;61.38;;;30.25;;
30818;SDS011;17546;42.674;23.284;2023-04-08T05:41:57;61.30;;;31.38;;
30818;SDS011;17546;42.674;23.284;2023-04-08T05:44:23;59.53;;;30.23;;
30818;SDS011;17546;42.674;23.284;2023-04-08T05:46:48;64.32;;;31.77;;
30818;SDS011;17546;42.674;23.284;2023-04-08T05:49:13;68.45;;;32.92;;
30818;SDS011;17546;42.674;23.284;2023-04-08T05:51:41;63.47;;;32.47;;
30818;SDS011;17546;42.674;23.284;2023-04-08T05:54:06;71.80;;;33.80;;
30818;SDS011;17546;42.674;23.284;2023-04-08T05:56:32;67.70;;;32.88;;
30818;SDS011;17546;42.674;23.284;2023-04-08T05:58:57;66.38;;;33.05;;
30818;SDS011;17546;42.674;23.284;2023-04-08T06:01:23;63.25;;;32.17;;
30818;SDS011;17546;42.674;23.284;2023-04-08T06:03:49;79.20;;;32.75;;
30818;SDS011;17546;42.674;23.284;2023-04-08T06:06:16;57.90;;;31.10;;
30818;SDS011;17546;42.674;23.284;2023-04-08T06:08:42;60.08;;;31.75;;
30818;SDS011;17546;42.674;23.284;2023-04-08T06:11:07;68.35;;;31.67;;
30818;SDS011;17546;42.674;23.284;2023-04-08T06:13:32;57.13;;;30.17;;
30818;SDS011;17546;42.674;23.284;2023-04-08T06:15:58;60.33;;;30.92;;
30818;SDS011;17546;42.674;23.284;2023-04-08T06:18:33;63.20;;;30.40;;
30818;SDS011;17546;42.674;23.284;2023-04-08T06:20:59;51.83;;;29.13;;
30818;SDS011;17546;42.674;23.284;2023-04-08T06:23:24;57.95;;;29.50;;
30818;SDS011;17546;42.674;23.284;2023-04-08T06:25:49;63.25;;;30.75;;
30818;SDS011;17546;42.674;23.284;2023-04-08T06:28:17;53.63;;;29.73;;
30818;SDS011;17546;42.674;23.284;2023-04-08T06:30:42;60.25;;;30.80;;
30818;SDS011;17546;42.674;23.284;2023-04-08T06:33:08;67.00;;;30.70;;
30818;SDS011;17546;42.674;23.284;2023-04-08T06:35:33;61.05;;;29.58;;
30818;SDS011;17546;42.674;23.284;2023-04-08T06:37:59;57.60;;;30.02;;
30818;SDS011;17546;42.674;23.284;2023-04-08T06:40:24;54.47;;;29.02;;
30818;SDS011;17546;42.674;23.284;2023-04-08T06:42:49;52.28;;;28.52;;
30818;SDS011;17546;42.674;23.284;2023-04-08T06:45:15;50.58;;;27.77;;
30818;SDS011;17546;42.674;23.284;2023-04-08T06:47:40;53.90;;;26.90;;
30818;SDS011;17546;42.674;23.284;2023-04-08T06:50:06;60.55;;;28.63;;
30818;SDS011;17546;42.674;23.284;2023-04-08T06:52:31;55.25;;;28.50;;
30818;SDS011;17546;42.674;23.284;2023-04-08T06:54:57;53.17;;;27.88;;
30818;SDS011;17546;42.674;23.284;2023-04-08T06:57:22;51.47;;;26.27;;
30818;SDS011;17546;42.674;23.284;2023-04-08T06:59:47;51.30;;;27.55;;
30818;SDS011;17546;42.674;23.284;2023-04-08T07:02:13;46.80;;;24.70;;
30818;SDS011;17546;42.674;23.284;2023-04-08T07:04:39;45.67;;;24.00;;
30818;SDS011;17546;42.674;23.284;2023-04-08T07:07:05;40.30;;;21.52;;
30818;SDS011;17546;42.674;23.284;2023-04-08T07:09:31;52.95;;;24.75;;
30818;SDS011;17546;42.674;23.284;2023-04-08T07:11:56;49.08;;;23.77;;
30818;SDS011;17546;42.674;23.284;2023-04-08T07:14:22;47.28;;;20.95;;
30818;SDS011;17546;42.674;23.284;2023-04-08T07:16:47;59.25;;;28.02;;
30818;SDS011;17546;42.674;23.284;2023-04-08T07:19:13;32.65;;;15.93;;
30818;SDS011;17546;42.674;23.284;2023-04-08T07:21:38;30.80;;;16.45;;
30818;SDS011;17546;42.674;23.284;2023-04-08T07:24:04;43.88;;;21.25;;
30818;SDS011;17546;42.674;23.284;2023-04-08T07:26:29;35.13;;;18.35;;
30818;SDS011;17546;42.674;23.284;2023-04-08T07:28:55;27.73;;;17.08;;
30818;SDS011;17546;42.674;23.284;2023-04-08T07:31:20;29.02;;;15.85;;
30818;SDS011;17546;42.674;23.284;2023-04-08T07:33:46;63.95;;;18.23;;
30818;SDS011;17546;42.674;23.284;2023-04-08T07:36:12;29.73;;;16.33;;
30818;SDS011;17546;42.674;23.284;2023-04-08T07:38:39;31.90;;;16.23;;
30818;SDS011;17546;42.674;23.284;2023-04-08T07:41:04;25.98;;;16.17;;
30818;SDS011;17546;42.674;23.284;2023-04-08T07:43:30;28.10;;;17.20;;
30818;SDS011;17546;42.674;23.284;2023-04-08T07:46:02;40.03;;;16.10;;
30818;SDS011;17546;42.674;23.284;2023-04-08T07:48:28;29.77;;;16.52;;
30818;SDS011;17546;42.674;23.284;2023-04-08T07:50:57;33.83;;;16.55;;
30818;SDS011;17546;42.674;23.284;2023-04-08T07:53:30;30.73;;;16.85;;
30818;SDS011;17546;42.674;23.284;2023-04-08T07:55:56;28.35;;;16.20;;
30818;SDS011;17546;42.674;23.284;2023-04-08T07:58:21;30.45;;;18.05;;
30818;SDS011;17546;42.674;23.284;2023-04-08T08:00:47;39.03;;;18.50;;
30818;SDS011;17546;42.674;23.284;2023-04-08T08:03:12;39.63;;;19.90;;
30818;SDS011;17546;42.674;23.284;2023-04-08T08:05:38;35.92;;;18.38;;
30818;SDS011;17546;42.674;23.284;2023-04-08T08:08:03;30.90;;;17.08;;
30818;SDS011;17546;42.674;23.284;2023-04-08T08:10:31;31.75;;;17.45;;
30818;SDS011;17546;42.674;23.284;2023-04-08T08:12:57;31.73;;;16.77;;
30818;SDS011;17546;42.674;23.284;2023-04-08T08:15:22;38.17;;;17.08;;
30818;SDS011;17546;42.674;23.284;2023-04-08T08:17:47;28.48;;;15.93;;
30818;SDS011;17546;42.674;23.284;2023-04-08T08:20:13;31.05;;;16.35;;
30818;SDS011;17546;42.674;23.284;2023-04-08T08:22:38;29.30;;;16.25;;
30818;SDS011;17546;42.674;23.284;2023-04-08T08:25:04;29.50;;;16.02;;
30818;SDS011;17546;42.674;23.284;2023-04-08T08:27:30;26.27;;;15.65;;
30818;SDS011;17546;42.674;23.284;2023-04-08T08:29:56;28.02;;;16.20;;
30818;SDS011;17546;42.674;23.284;2023-04-08T08:32:22;29.33;;;16.75;;
30818;SDS011;17546;42.674;23.284;2023-04-08T08:34:47;26.23;;;16.10;;
30818;SDS011;17546;42.674;23.284;2023-04-08T08:37:13;34.35;;;18.50;;
30818;SDS011;17546;42.674;23.284;2023-04-08T08:39:38;34.78;;;18.88;;
30818;SDS011;17546;42.674;23.284;2023-04-08T08:42:04;31.25;;;17.65;;
30818;SDS011;17546;42.674;23.284;2023-04-08T08:44:29;27.10;;;17.23;;
30818;SDS011;17546;42.674;23.284;2023-04-08T08:46:55;26.60;;;17.13;;
30818;SDS011;17546;42.674;23.284;2023-04-08T08:49:20;30.40;;;17.20;;
30818;SDS011;17546;42.674;23.284;2023-04-08T08:51:47;28.15;;;16.63;;
30818;SDS011;17546;42.674;23.284;2023-04-08T08:54:14;33.35;;;17.73;;
30818;SDS011;17546;42.674;23.284;2023-04-08T08:56:39;33.38;;;17.58;;
30818;SDS011;17546;42.674;23.284;2023-04-08T08:59:07;33.90;;;18.27;;
30818;SDS011;17546;42.674;23.284;2023-04-08T09:01:33;29.98;;;18.08;;
30818;SDS011;17546;42.674;23.284;2023-04-08T09:04:15;32.50;;;18.08;;
30818;SDS011;17546;42.674;23.284;2023-04-08T09:06:44;31.42;;;17.63;;
30818;SDS011;17546;42.674;23.284;2023-04-08T09:09:10;32.83;;;18.15;;
30818;SDS011;17546;42.674;23.284;2023-04-08T09:11:37;29.95;;;16.52;;
30818;SDS011;17546;42.674;23.284;2023-04-08T09:14:04;31.48;;;17.85;;
30818;SDS011;17546;42.674;23.284;2023-04-08T09:16:31;34.63;;;18.02;;
30818;SDS011;17546;42.674;23.284;2023-04-08T09:19:06;33.35;;;17.58;;
30818;SDS011;17546;42.674;23.284;2023-04-08T09:21:34;33.08;;;17.17;;
30818;SDS011;17546;42.674;23.284;2023-04-08T09:24:00;35.33;;;19.08;;
30818;SDS011;17546;42.674;23.284;2023-04-08T09:26:25;37.45;;;20.10;;
30818;SDS011;17546;42.674;23.284;2023-04-08T09:29:06;30.58;;;16.90;;
30818;SDS011;17546;42.674;23.284;2023-04-08T09:31:33;37.38;;;18.00;;
30818;SDS011;17546;42.674;23.284;2023-04-08T09:34:08;33.58;;;18.23;;
30818;SDS011;17546;42.674;23.284;2023-04-08T09:39:02;32.10;;;18.52;;
30818;SDS011;17546;42.674;23.284;2023-04-08T09:41:28;28.77;;;17.88;;
30818;SDS011;17546;42.674;23.284;2023-04-08T09:44:01;25.17;;;16.13;;
30818;SDS011;17546;42.674;23.284;2023-04-08T09:46:32;28.23;;;16.63;;
30818;SDS011;17546;42.674;23.284;2023-04-08T09:49:09;24.17;;;15.15;;
30818;SDS011;17546;42.674;23.284;2023-04-08T09:51:48;24.98;;;14.63;;
30818;SDS011;17546;42.674;23.284;2023-04-08T09:54:23;29.05;;;14.30;;
30818;SDS011;17546;42.674;23.284;2023-04-08T09:57:08;27.85;;;14.60;;
30818;SDS011;17546;42.674;23.284;2023-04-08T09:59:37;23.92;;;14.75;;
30818;SDS011;17546;42.674;23.284;2023-04-08T10:02:09;27.15;;;14.77;;
30818;SDS011;17546;42.674;23.284;2023-04-08T10:04:37;32.15;;;16.52;;
30818;SDS011;17546;42.674;23.284;2023-04-08T10:07:06;24.52;;;14.95;;
30818;SDS011;17546;42.674;23.284;2023-04-08T10:09:33;27.10;;;14.52;;
30818;SDS011;17546;42.674;23.284;2023-04-08T10:12:00;23.02;;;15.05;;
30818;SDS011;17546;42.674;23.284;2023-04-08T10:14:27;26.50;;;15.05;;
30818;SDS011;17546;42.674;23.284;2023-04-08T10:19:53;26.63;;;15.57;;
30818;SDS011;17546;42.674;23.284;2023-04-08T10:22:52;29.83;;;16.50;;
30818;SDS011;17546;42.674;23.284;2023-04-08T10:27:40;32.10;;;16.38;;
30818;SDS011;17546;42.674;23.284;2023-04-08T10:30:49;35.30;;;16.52;;
30818;SDS011;17546;42.674;23.284;2023-04-08T10:32:58;32.20;;;16.52;;
30818;SDS011;17546;42.674;23.284;2023-04-08T10:35:28;26.63;;;16.27;;
30818;SDS011;17546;42.674;23.284;2023-04-08T10:37:54;32.90;;;16.20;;
30818;SDS011;17546;42.674;23.284;2023-04-08T10:40:20;34.05;;;16.45;;
30818;SDS011;17546;42.674;23.284;2023-04-08T10:42:45;28.25;;;16.75;;
30818;SDS011;17546;42.674;23.284;2023-04-08T10:45:15;31.38;;;16.60;;
30818;SDS011;17546;42.674;23.284;2023-04-08T10:47:42;28.88;;;15.52;;
30818;SDS011;17546;42.674;23.284;2023-04-08T10:50:14;29.42;;;16.17;;
30818;SDS011;17546;42.674;23.284;2023-04-08T10:52:47;29.73;;;16.67;;
30818;SDS011;17546;42.674;23.284;2023-04-08T10:55:14;35.65;;;16.80;;
30818;SDS011;17546;42.674;23.284;2023-04-08T10:57:40;29.30;;;16.70;;
30818;SDS011;17546;42.674;23.284;2023-04-08T11:00:09;27.48;;;15.90;;
30818;SDS011;17546;42.674;23.284;2023-04-08T11:02:38;29.92;;;15.32;;
30818;SDS011;17546;42.674;23.284;2023-04-08T11:05:04;24.70;;;14.85;;
30818;SDS011;17546;42.674;23.284;2023-04-08T11:07:29;26.88;;;15.75;;
30818;SDS011;17546;42.674;23.284;2023-04-08T11:09:55;30.77;;;16.15;;
30818;SDS011;17546;42.674;23.284;2023-04-08T11:12:21;32.10;;;16.35;;
30818;SDS011;17546;42.674;23.284;2023-04-08T11:14:47;29.00;;;17.13;;
30818;SDS011;17546;42.674;23.284;2023-04-08T11:17:16;28.85;;;15.52;;
30818;SDS011;17546;42.674;23.284;2023-04-08T11:19:43;29.48;;;15.95;;
30818;SDS011;17546;42.674;23.284;2023-04-08T11:22:08;34.45;;;15.85;;
30818;SDS011;17546;42.674;23.284;2023-04-08T11:24:37;26.77;;;16.23;;
30818;SDS011;17546;42.674;23.284;2023-04-08T11:27:03;27.90;;;14.30;;
30818;SDS011;17546;42.674;23.284;2023-04-08T11:29:30;29.27;;;14.80;;
30818;SDS011;17546;42.674;23.284;2023-04-08T11:31:57;31.02;;;14.85;;
30818;SDS011;17546;42.674;23.284;2023-04-08T11:34:23;23.60;;;14.35;;
30818;SDS011;17546;42.674;23.284;2023-04-08T11:36:49;27.88;;;15.07;;
30818;SDS011;17546;42.674;23.284;2023-04-08T11:39:15;25.63;;;13.98;;
30818;SDS011;17546;42.674;23.284;2023-04-08T11:41:40;28.85;;;14.27;;
30818;SDS011;17546;42.674;23.284;2023-04-08T11:44:06;25.10;;;13.00;;
30818;SDS011;17546;42.674;23.284;2023-04-08T11:46:32;20.85;;;12.90;;
30818;SDS011;17546;42.674;23.284;2023-04-08T11:49:06;22.25;;;12.40;;
30818;SDS011;17546;42.674;23.284;2023-04-08T11:51:34;15.70;;;10.68;;
30818;SDS011;17546;42.674;23.284;2023-04-08T11:54:31;18.55;;;10.45;;
30818;SDS011;17546;42.674;23.284;2023-04-08T11:56:57;21.77;;;11.00;;
30818;SDS011;17546;42.674;23.284;2023-04-08T11:59:23;23.88;;;12.27;;
30818;SDS011;17546;42.674;23.284;2023-04-08T12:01:52;21.08;;;11.55;;
30818;SDS011;17546;42.674;23.284;2023-04-08T12:04:17;19.05;;;10.02;;
30818;SDS011;17546;42.674;23.284;2023-04-08T12:06:43;17.70;;;9.43;;
30818;SDS011;17546;42.674;23.284;2023-04-08T12:09:11;18.08;;;10.57;;
30818;SDS011;17546;42.674;23.284;2023-04-08T12:11:37;30.38;;;10.98;;
30818;SDS011;17546;42.674;23.284;2023-04-08T12:14:02;25.15;;;11.85;;
30818;SDS011;17546;42.674;23.284;2023-04-08T12:16:28;28.60;;;11.75;;
30818;SDS011;17546;42.674;23.284;2023-04-08T12:18:54;20.92;;;10.60;;
30818;SDS011;17546;42.674;23.284;2023-04-08T12:21:19;19.30;;;10.00;;
30818;SDS011;17546;42.674;23.284;2023-04-08T12:23:45;15.25;;;9.25;;
30818;SDS011;17546;42.674;23.284;2023-04-08T12:26:10;20.80;;;10.70;;
30818;SDS011;17546;42.674;23.284;2023-04-08T12:28:36;17.25;;;9.63;;
30818;SDS011;17546;42.674;23.284;2023-04-08T12:31:01;19.10;;;10.45;;
30818;SDS011;17546;42.674;23.284;2023-04-08T12:33:27;17.55;;;10.88;;
30818;SDS011;17546;42.674;23.284;2023-04-08T12:35:52;19.48;;;11.15;;
30818;SDS011;17546;42.674;23.284;2023-04-08T12:38:18;17.67;;;11.48;;
30818;SDS011;17546;42.674;23.284;2023-04-08T12:40:44;19.13;;;11.48;;
30818;SDS011;17546;42.674;23.284;2023-04-08T12:43:09;22.15;;;11.57;;
30818;SDS011;17546;42.674;23.284;2023-04-08T12:45:35;19.65;;;11.85;;
30818;SDS011;17546;42.674;23.284;2023-04-08T12:48:00;15.88;;;10.23;;
30818;SDS011;17546;42.674;23.284;2023-04-08T12:50:26;13.82;;;8.25;;
30818;SDS011;17546;42.674;23.284;2023-04-08T12:52:51;22.40;;;8.75;;
30818;SDS011;17546;42.674;23.284;2023-04-08T12:55:17;15.55;;;8.95;;
30818;SDS011;17546;42.674;23.284;2023-04-08T12:57:43;14.60;;;8.43;;
30818;SDS011;17546;42.674;23.284;2023-04-08T13:00:08;20.15;;;9.20;;
30818;SDS011;17546;42.674;23.284;2023-04-08T13:02:35;16.63;;;8.93;;
30818;SDS011;17546;42.674;23.284;2023-04-08T13:05:00;17.83;;;9.35;;
30818;SDS011;17546;42.674;23.284;2023-04-08T13:07:26;14.02;;;9.02;;
30818;SDS011;17546;42.674;23.284;2023-04-08T13:09:51;18.77;;;9.88;;
30818;SDS011;17546;42.674;23.284;2023-04-08T13:12:17;16.25;;;9.55;;
30818;SDS011;17546;42.674;23.284;2023-04-08T13:14:42;13.88;;;9.32;;
30818;SDS011;17546;42.674;23.284;2023-04-08T13:17:07;17.23;;;9.98;;
30818;SDS011;17546;42.674;23.284;2023-04-08T13:19:33;17.00;;;10.40;;
30818;SDS011;17546;42.674;23.284;2023-04-08T13:21:59;15.95;;;10.23;;
30818;SDS011;17546;42.674;23.284;2023-04-08T13:24:24;14.75;;;9.90;;
30818;SDS011;17546;42.674;23.284;2023-04-08T13:26:50;16.33;;;10.35;;
30818;SDS011;17546;42.674;23.284;2023-04-08T13:29:16;15.38;;;9.63;;
30818;SDS011;17546;42.674;23.284;2023-04-08T13:31:42;15.82;;;11.00;;
30818;SDS011;17546;42.674;23.284;2023-04-08T13:34:07;17.50;;;10.57;;
30818;SDS011;17546;42.674;23.284;2023-04-08T13:36:32;14.90;;;10.52;;
30818;SDS011;17546;42.674;23.284;2023-04-08T13:38:58;18.50;;;12.07;;
30818;SDS011;17546;42.674;23.284;2023-04-08T13:41:23;16.30;;;9.90;;
30818;SDS011;17546;42.674;23.284;2023-04-08T13:43:49;16.42;;;10.18;;
30818;SDS011;17546;42.674;23.284;2023-04-08T13:46:14;17.92;;;10.63;;
30818;SDS011;17546;42.674;23.284;2023-04-08T13:48:40;16.63;;;10.73;;
30818;SDS011;17546;42.674;23.284;2023-04-08T13:51:06;22.58;;;14.75;;
30818;SDS011;17546;42.674;23.284;2023-04-08T13:53:31;22.10;;;13.82;;
30818;SDS011;17546;42.674;23.284;2023-04-08T13:55:57;15.90;;;10.30;;
30818;SDS011;17546;42.674;23.284;2023-04-08T13:58:23;16.55;;;10.80;;
30818;SDS011;17546;42.674;23.284;2023-04-08T14:00:48;18.83;;;10.02;;
30818;SDS011;17546;42.674;23.284;2023-04-08T14:03:15;12.85;;;9.15;;
30818;SDS011;17546;42.674;23.284;2023-04-08T14:05:41;20.73;;;10.85;;
30818;SDS011;17546;42.674;23.284;2023-04-08T14:08:06;18.60;;;9.52;;
30818;SDS011;17546;42.674;23.284;2023-04-08T14:10:32;17.67;;;9.38;;
30818;SDS011;17546;42.674;23.284;2023-04-08T14:12:57;15.52;;;8.05;;
30818;SDS011;17546;42.674;23.284;2023-04-08T14:15:23;12.52;;;8.40;;
30818;SDS011;17546;42.674;23.284;2023-04-08T14:17:48;14.13;;;9.13;;